sensor_id;sensor_type;location;lat;lon;timestamp;P1;durP1;ratioP1;P2;durP2;ratioP2
7493;SDS011;3788;49.902;8.590;2022-08-21T00:01:45;4.37;;;3.97;;
7493;SDS011;3788;49.902;8.590;2022-08-21T00:04:12;3.90;;;3.50;;
7493;SDS011;3788;49.902;8.590;2022-08-21T00:06:40;3.83;;;3.50;;
7493;SDS011;3788;49.902;8.590;2022-08-21T00:09:08;3.90;;;3.50;;
7493;SDS011;3788;49.902;8.590;2022-08-21T00:11:35;3.80;;;3.40;;
7493;SDS011;3788;49.902;8.590;2022-08-21T00:14:04;3.50;;;3.20;;
7493;SDS011;3788;49.902;8.590;2022-08-21T00:16:32;3.43;;;2.93;;
7493;SDS011;3788;49.902;8.590;2022-08-21T00:18:59;3.47;;;3.20;;
7493;SDS011;3788;49.902;8.590;2022-08-21T00:21:26;4.63;;;3.90;;
7493;SDS011;3788;49.902;8.590;2022-08-21T00:23:55;4.43;;;3.80;;
7493;SDS011;3788;49.902;8.590;2022-08-21T00:26:21;4.10;;;3.70;;
7493;SDS011;3788;49.902;8.590;2022-08-21T00:28:48;4.33;;;3.67;;
7493;SDS011;3788;49.902;8.590;2022-08-21T00:31:15;4.43;;;3.50;;
7493;SDS011;3788;49.902;8.590;2022-08-21T00:33:42;3.40;;;3.10;;
7493;SDS011;3788;49.902;8.590;2022-08-21T00:36:10;3.80;;;3.40;;
7493;SDS011;3788;49.902;8.590;2022-08-21T00:38:37;3.13;;;2.93;;
7493;SDS011;3788;49.902;8.590;2022-08-21T00:41:07;3.63;;;3.23;;
7493;SDS011;3788;49.902;8.590;2022-08-21T00:43:36;3.50;;;3.30;;
7493;SDS011;3788;49.902;8.590;2022-08-21T00:46:05;3.70;;;3.40;;
7493;SDS011;3788;49.902;8.590;2022-08-21T00:48:32;4.57;;;3.33;;
7493;SDS011;3788;49.902;8.590;2022-08-21T00:51:00;4.70;;;3.70;;
7493;SDS011;3788;49.902;8.590;2022-08-21T00:53:30;5.30;;;3.87;;
7493;SDS011;3788;49.902;8.590;2022-08-21T00:55:57;3.97;;;3.57;;
7493;SDS011;3788;49.902;8.590;2022-08-21T00:58:28;4.87;;;3.80;;
7493;SDS011;3788;49.902;8.590;2022-08-21T01:00:56;4.13;;;3.73;;
7493;SDS011;3788;49.902;8.590;2022-08-21T01:03:25;3.83;;;3.40;;
7493;SDS011;3788;49.902;8.590;2022-08-21T01:05:52;3.83;;;3.53;;
7493;SDS011;3788;49.902;8.590;2022-08-21T01:08:20;4.27;;;3.87;;
7493;SDS011;3788;49.902;8.590;2022-08-21T01:10:48;3.80;;;3.33;;
7493;SDS011;3788;49.902;8.590;2022-08-21T01:13:16;4.03;;;3.40;;
7493;SDS011;3788;49.902;8.590;2022-08-21T01:15:46;3.87;;;3.57;;
7493;SDS011;3788;49.902;8.590;2022-08-21T01:18:17;3.47;;;3.17;;
7493;SDS011;3788;49.902;8.590;2022-08-21T01:20:52;3.50;;;3.20;;
7493;SDS011;3788;49.902;8.590;2022-08-21T01:23:24;4.97;;;3.70;;
7493;SDS011;3788;49.902;8.590;2022-08-21T01:25:51;4.07;;;3.67;;
7493;SDS011;3788;49.902;8.590;2022-08-21T01:28:18;3.90;;;3.60;;
7493;SDS011;3788;49.902;8.590;2022-08-21T01:30:47;4.00;;;3.60;;
7493;SDS011;3788;49.902;8.590;2022-08-21T01:33:17;3.40;;;3.10;;
7493;SDS011;3788;49.902;8.590;2022-08-21T01:35:45;4.47;;;4.03;;
7493;SDS011;3788;49.902;8.590;2022-08-21T01:38:13;4.43;;;4.03;;
7493;SDS011;3788;49.902;8.590;2022-08-21T01:40:40;3.60;;;3.30;;
7493;SDS011;3788;49.902;8.590;2022-08-21T01:43:07;3.80;;;3.30;;
7493;SDS011;3788;49.902;8.590;2022-08-21T01:45:33;3.53;;;3.23;;
7493;SDS011;3788;49.902;8.590;2022-08-21T01:48:00;3.67;;;3.37;;
7493;SDS011;3788;49.902;8.590;2022-08-21T01:50:27;3.97;;;3.60;;
7493;SDS011;3788;49.902;8.590;2022-08-21T01:52:54;3.50;;;3.20;;
7493;SDS011;3788;49.902;8.590;2022-08-21T01:55:22;4.77;;;3.57;;
7493;SDS011;3788;49.902;8.590;2022-08-21T01:57:49;4.67;;;4.07;;
7493;SDS011;3788;49.902;8.590;2022-08-21T02:00:17;4.20;;;3.80;;
7493;SDS011;3788;49.902;8.590;2022-08-21T02:02:47;3.63;;;3.27;;
7493;SDS011;3788;49.902;8.590;2022-08-21T02:05:15;4.43;;;4.03;;
7493;SDS011;3788;49.902;8.590;2022-08-21T02:07:44;4.60;;;4.20;;
7493;SDS011;3788;49.902;8.590;2022-08-21T02:10:13;5.40;;;4.37;;
7493;SDS011;3788;49.902;8.590;2022-08-21T02:12:43;4.20;;;3.70;;
7493;SDS011;3788;49.902;8.590;2022-08-21T02:15:09;3.63;;;3.30;;
7493;SDS011;3788;49.902;8.590;2022-08-21T02:17:37;4.10;;;3.70;;
7493;SDS011;3788;49.902;8.590;2022-08-21T02:20:06;4.03;;;3.70;;
7493;SDS011;3788;49.902;8.590;2022-08-21T02:22:33;4.10;;;3.80;;
7493;SDS011;3788;49.902;8.590;2022-08-21T02:25:00;3.77;;;3.47;;
7493;SDS011;3788;49.902;8.590;2022-08-21T02:27:26;3.97;;;3.53;;
7493;SDS011;3788;49.902;8.590;2022-08-21T02:29:55;3.90;;;3.50;;
7493;SDS011;3788;49.902;8.590;2022-08-21T02:32:23;5.20;;;4.33;;
7493;SDS011;3788;49.902;8.590;2022-08-21T02:34:51;4.97;;;4.17;;
7493;SDS011;3788;49.902;8.590;2022-08-21T02:37:17;5.27;;;4.43;;
7493;SDS011;3788;49.902;8.590;2022-08-21T02:39:44;4.50;;;4.13;;
7493;SDS011;3788;49.902;8.590;2022-08-21T02:42:11;4.60;;;3.90;;
7493;SDS011;3788;49.902;8.590;2022-08-21T02:44:37;5.27;;;4.30;;
7493;SDS011;3788;49.902;8.590;2022-08-21T02:47:05;5.03;;;4.53;;
7493;SDS011;3788;49.902;8.590;2022-08-21T02:49:32;4.77;;;4.07;;
7493;SDS011;3788;49.902;8.590;2022-08-21T02:51:59;4.00;;;3.70;;
7493;SDS011;3788;49.902;8.590;2022-08-21T02:54:25;4.70;;;3.60;;
7493;SDS011;3788;49.902;8.590;2022-08-21T02:56:52;6.07;;;4.10;;
7493;SDS011;3788;49.902;8.590;2022-08-21T02:59:19;4.73;;;4.23;;
7493;SDS011;3788;49.902;8.590;2022-08-21T03:01:45;5.17;;;4.27;;
7493;SDS011;3788;49.902;8.590;2022-08-21T03:04:13;5.33;;;4.40;;
7493;SDS011;3788;49.902;8.590;2022-08-21T03:06:40;4.10;;;3.70;;
7493;SDS011;3788;49.902;8.590;2022-08-21T03:09:07;5.33;;;4.40;;
7493;SDS011;3788;49.902;8.590;2022-08-21T03:11:34;3.83;;;3.53;;
7493;SDS011;3788;49.902;8.590;2022-08-21T03:14:01;4.90;;;3.57;;
7493;SDS011;3788;49.902;8.590;2022-08-21T03:16:30;4.93;;;4.17;;
7493;SDS011;3788;49.902;8.590;2022-08-21T03:18:57;4.83;;;3.87;;
7493;SDS011;3788;49.902;8.590;2022-08-21T03:21:25;4.87;;;4.00;;
7493;SDS011;3788;49.902;8.590;2022-08-21T03:23:52;4.30;;;3.90;;
7493;SDS011;3788;49.902;8.590;2022-08-21T03:26:19;4.10;;;3.23;;
7493;SDS011;3788;49.902;8.590;2022-08-21T03:28:46;4.53;;;4.13;;
7493;SDS011;3788;49.902;8.590;2022-08-21T03:31:13;4.07;;;3.67;;
7493;SDS011;3788;49.902;8.590;2022-08-21T03:33:40;3.77;;;3.47;;
7493;SDS011;3788;49.902;8.590;2022-08-21T03:36:07;4.53;;;3.50;;
7493;SDS011;3788;49.902;8.590;2022-08-21T03:38:35;4.17;;;3.77;;
7493;SDS011;3788;49.902;8.590;2022-08-21T03:41:03;3.67;;;3.37;;
7493;SDS011;3788;49.902;8.590;2022-08-21T03:43:31;3.97;;;3.57;;
7493;SDS011;3788;49.902;8.590;2022-08-21T03:45:58;4.40;;;4.00;;
7493;SDS011;3788;49.902;8.590;2022-08-21T03:48:26;4.83;;;3.80;;
7493;SDS011;3788;49.902;8.590;2022-08-21T03:50:53;4.27;;;3.80;;
7493;SDS011;3788;49.902;8.590;2022-08-21T03:53:21;4.93;;;4.00;;
7493;SDS011;3788;49.902;8.590;2022-08-21T03:55:49;4.13;;;3.73;;
7493;SDS011;3788;49.902;8.590;2022-08-21T03:58:18;4.43;;;4.03;;
7493;SDS011;3788;49.902;8.590;2022-08-21T04:00:46;5.10;;;4.60;;
7493;SDS011;3788;49.902;8.590;2022-08-21T04:03:16;5.60;;;5.00;;
7493;SDS011;3788;49.902;8.590;2022-08-21T04:05:43;4.90;;;4.20;;
7493;SDS011;3788;49.902;8.590;2022-08-21T04:08:11;6.30;;;4.43;;
7493;SDS011;3788;49.902;8.590;2022-08-21T04:10:39;6.17;;;4.60;;
7493;SDS011;3788;49.902;8.590;2022-08-21T04:13:07;4.57;;;4.17;;
7493;SDS011;3788;49.902;8.590;2022-08-21T04:15:34;4.47;;;4.07;;
7493;SDS011;3788;49.902;8.590;2022-08-21T04:18:01;5.40;;;4.90;;
7493;SDS011;3788;49.902;8.590;2022-08-21T04:20:28;5.10;;;4.60;;
7493;SDS011;3788;49.902;8.590;2022-08-21T04:22:55;5.27;;;4.30;;
7493;SDS011;3788;49.902;8.590;2022-08-21T04:25:22;5.30;;;4.40;;
7493;SDS011;3788;49.902;8.590;2022-08-21T04:27:50;4.70;;;4.30;;
7493;SDS011;3788;49.902;8.590;2022-08-21T04:30:19;4.33;;;3.93;;
7493;SDS011;3788;49.902;8.590;2022-08-21T04:32:47;5.20;;;4.47;;
7493;SDS011;3788;49.902;8.590;2022-08-21T04:35:16;5.00;;;4.50;;
7493;SDS011;3788;49.902;8.590;2022-08-21T04:37:45;4.87;;;3.73;;
7493;SDS011;3788;49.902;8.590;2022-08-21T04:40:14;4.77;;;4.20;;
7493;SDS011;3788;49.902;8.590;2022-08-21T04:42:42;5.07;;;4.30;;
7493;SDS011;3788;49.902;8.590;2022-08-21T04:45:15;4.43;;;4.03;;
7493;SDS011;3788;49.902;8.590;2022-08-21T04:47:46;5.47;;;4.27;;
7493;SDS011;3788;49.902;8.590;2022-08-21T04:50:13;5.47;;;4.40;;
7493;SDS011;3788;49.902;8.590;2022-08-21T04:52:40;4.43;;;4.03;;
7493;SDS011;3788;49.902;8.590;2022-08-21T04:55:07;4.07;;;3.77;;
7493;SDS011;3788;49.902;8.590;2022-08-21T04:57:34;4.37;;;3.50;;
7493;SDS011;3788;49.902;8.590;2022-08-21T05:00:02;4.43;;;4.03;;
7493;SDS011;3788;49.902;8.590;2022-08-21T05:02:30;3.87;;;3.57;;
7493;SDS011;3788;49.902;8.590;2022-08-21T05:04:59;4.77;;;4.17;;
7493;SDS011;3788;49.902;8.590;2022-08-21T05:07:27;4.57;;;3.80;;
7493;SDS011;3788;49.902;8.590;2022-08-21T05:09:55;4.83;;;4.00;;
7493;SDS011;3788;49.902;8.590;2022-08-21T05:12:22;4.50;;;4.10;;
7493;SDS011;3788;49.902;8.590;2022-08-21T05:14:49;4.50;;;4.10;;
7493;SDS011;3788;49.902;8.590;2022-08-21T05:17:16;5.20;;;4.07;;
7493;SDS011;3788;49.902;8.590;2022-08-21T05:19:43;4.33;;;3.80;;
7493;SDS011;3788;49.902;8.590;2022-08-21T05:22:11;4.23;;;3.93;;
7493;SDS011;3788;49.902;8.590;2022-08-21T05:24:44;4.57;;;3.83;;
7493;SDS011;3788;49.902;8.590;2022-08-21T05:27:10;3.63;;;3.37;;
7493;SDS011;3788;49.902;8.590;2022-08-21T05:29:37;4.33;;;3.93;;
7493;SDS011;3788;49.902;8.590;2022-08-21T05:32:07;5.20;;;3.60;;
7493;SDS011;3788;49.902;8.590;2022-08-21T05:34:35;3.97;;;3.50;;
7493;SDS011;3788;49.902;8.590;2022-08-21T05:37:01;5.00;;;4.00;;
7493;SDS011;3788;49.902;8.590;2022-08-21T05:39:30;5.80;;;4.23;;
7493;SDS011;3788;49.902;8.590;2022-08-21T05:41:56;5.73;;;3.97;;
7493;SDS011;3788;49.902;8.590;2022-08-21T05:44:23;3.90;;;3.50;;
7493;SDS011;3788;49.902;8.590;2022-08-21T05:46:50;3.90;;;3.53;;
7493;SDS011;3788;49.902;8.590;2022-08-21T05:49:16;4.07;;;3.67;;
7493;SDS011;3788;49.902;8.590;2022-08-21T05:51:43;4.10;;;3.80;;
7493;SDS011;3788;49.902;8.590;2022-08-21T05:54:10;3.60;;;3.30;;
7493;SDS011;3788;49.902;8.590;2022-08-21T05:56:38;4.37;;;3.53;;
7493;SDS011;3788;49.902;8.590;2022-08-21T05:59:05;3.47;;;3.17;;
7493;SDS011;3788;49.902;8.590;2022-08-21T06:01:32;4.33;;;3.10;;
7493;SDS011;3788;49.902;8.590;2022-08-21T06:03:59;3.17;;;2.97;;
7493;SDS011;3788;49.902;8.590;2022-08-21T06:06:26;3.40;;;3.10;;
7493;SDS011;3788;49.902;8.590;2022-08-21T06:08:53;3.60;;;3.30;;
7493;SDS011;3788;49.902;8.590;2022-08-21T06:11:20;3.17;;;2.87;;
7493;SDS011;3788;49.902;8.590;2022-08-21T06:13:48;3.53;;;3.23;;
7493;SDS011;3788;49.902;8.590;2022-08-21T06:16:15;3.83;;;2.87;;
7493;SDS011;3788;49.902;8.590;2022-08-21T06:18:42;3.03;;;2.80;;
7493;SDS011;3788;49.902;8.590;2022-08-21T06:21:10;4.37;;;3.37;;
7493;SDS011;3788;49.902;8.590;2022-08-21T06:23:38;3.47;;;2.90;;
7493;SDS011;3788;49.902;8.590;2022-08-21T06:26:06;3.77;;;3.10;;
7493;SDS011;3788;49.902;8.590;2022-08-21T06:28:33;4.73;;;3.20;;
7493;SDS011;3788;49.902;8.590;2022-08-21T06:31:09;4.07;;;3.60;;
7493;SDS011;3788;49.902;8.590;2022-08-21T06:33:36;4.87;;;2.90;;
7493;SDS011;3788;49.902;8.590;2022-08-21T06:36:03;2.67;;;2.47;;
7493;SDS011;3788;49.902;8.590;2022-08-21T06:38:30;3.10;;;2.60;;
7493;SDS011;3788;49.902;8.590;2022-08-21T06:40:56;4.00;;;2.70;;
7493;SDS011;3788;49.902;8.590;2022-08-21T06:43:23;2.80;;;2.50;;
7493;SDS011;3788;49.902;8.590;2022-08-21T06:45:50;3.57;;;2.80;;
7493;SDS011;3788;49.902;8.590;2022-08-21T06:48:18;2.70;;;2.50;;
7493;SDS011;3788;49.902;8.590;2022-08-21T06:50:45;2.60;;;2.40;;
7493;SDS011;3788;49.902;8.590;2022-08-21T06:53:12;2.40;;;2.20;;
7493;SDS011;3788;49.902;8.590;2022-08-21T06:55:41;2.17;;;2.07;;
7493;SDS011;3788;49.902;8.590;2022-08-21T06:58:09;2.27;;;2.10;;
7493;SDS011;3788;49.902;8.590;2022-08-21T07:00:38;2.40;;;2.20;;
7493;SDS011;3788;49.902;8.590;2022-08-21T07:03:06;3.97;;;2.70;;
7493;SDS011;3788;49.902;8.590;2022-08-21T07:05:34;2.80;;;2.60;;
7493;SDS011;3788;49.902;8.590;2022-08-21T07:08:01;2.77;;;2.30;;
7493;SDS011;3788;49.902;8.590;2022-08-21T07:10:28;2.33;;;2.07;;
7493;SDS011;3788;49.902;8.590;2022-08-21T07:12:55;3.70;;;2.50;;
7493;SDS011;3788;49.902;8.590;2022-08-21T07:15:21;3.33;;;2.73;;
7493;SDS011;3788;49.902;8.590;2022-08-21T07:17:48;2.77;;;2.50;;
7493;SDS011;3788;49.902;8.590;2022-08-21T07:20:15;3.97;;;2.77;;
7493;SDS011;3788;49.902;8.590;2022-08-21T07:22:43;3.97;;;2.50;;
7493;SDS011;3788;49.902;8.590;2022-08-21T07:25:10;3.27;;;2.87;;
7493;SDS011;3788;49.902;8.590;2022-08-21T07:27:36;3.10;;;2.80;;
7493;SDS011;3788;49.902;8.590;2022-08-21T07:30:04;3.17;;;2.63;;
7493;SDS011;3788;49.902;8.590;2022-08-21T07:32:32;3.03;;;2.73;;
7493;SDS011;3788;49.902;8.590;2022-08-21T07:34:58;3.03;;;2.63;;
7493;SDS011;3788;49.902;8.590;2022-08-21T07:37:25;3.37;;;3.07;;
7493;SDS011;3788;49.902;8.590;2022-08-21T07:39:53;4.23;;;3.20;;
7493;SDS011;3788;49.902;8.590;2022-08-21T07:42:20;4.70;;;3.13;;
7493;SDS011;3788;49.902;8.590;2022-08-21T07:44:47;4.47;;;3.07;;
7493;SDS011;3788;49.902;8.590;2022-08-21T07:47:13;4.37;;;3.53;;
7493;SDS011;3788;49.902;8.590;2022-08-21T07:49:40;4.83;;;3.30;;
7493;SDS011;3788;49.902;8.590;2022-08-21T07:52:06;4.13;;;2.50;;
7493;SDS011;3788;49.902;8.590;2022-08-21T07:54:33;3.03;;;2.73;;
7493;SDS011;3788;49.902;8.590;2022-08-21T07:57:01;3.80;;;2.50;;
7493;SDS011;3788;49.902;8.590;2022-08-21T07:59:29;3.60;;;2.60;;
7493;SDS011;3788;49.902;8.590;2022-08-21T08:01:55;2.60;;;2.40;;
7493;SDS011;3788;49.902;8.590;2022-08-21T08:04:22;3.57;;;2.60;;
7493;SDS011;3788;49.902;8.590;2022-08-21T08:06:49;3.13;;;2.60;;
7493;SDS011;3788;49.902;8.590;2022-08-21T08:09:16;2.83;;;2.37;;
7493;SDS011;3788;49.902;8.590;2022-08-21T08:11:43;3.20;;;2.90;;
7493;SDS011;3788;49.902;8.590;2022-08-21T08:14:11;3.83;;;2.50;;
7493;SDS011;3788;49.902;8.590;2022-08-21T08:16:37;4.70;;;3.30;;
7493;SDS011;3788;49.902;8.590;2022-08-21T08:19:04;5.05;;;3.88;;
7493;SDS011;3788;49.902;8.590;2022-08-21T08:21:31;2.90;;;2.70;;
7493;SDS011;3788;49.902;8.590;2022-08-21T08:23:58;4.60;;;2.90;;
7493;SDS011;3788;49.902;8.590;2022-08-21T08:26:25;3.00;;;2.80;;
7493;SDS011;3788;49.902;8.590;2022-08-21T08:28:52;5.47;;;2.97;;
7493;SDS011;3788;49.902;8.590;2022-08-21T08:31:20;3.17;;;2.75;;
7493;SDS011;3788;49.902;8.590;2022-08-21T08:33:47;2.78;;;2.58;;
7493;SDS011;3788;49.902;8.590;2022-08-21T08:36:14;2.90;;;2.70;;
7493;SDS011;3788;49.902;8.590;2022-08-21T08:38:42;2.92;;;2.25;;
7493;SDS011;3788;49.902;8.590;2022-08-21T08:41:10;2.95;;;2.60;;
7493;SDS011;3788;49.902;8.590;2022-08-21T08:43:39;2.63;;;2.42;;
7493;SDS011;3788;49.902;8.590;2022-08-21T08:46:11;2.42;;;2.20;;
7493;SDS011;3788;49.902;8.590;2022-08-21T08:48:44;2.42;;;2.22;;
7493;SDS011;3788;49.902;8.590;2022-08-21T08:51:17;2.50;;;2.30;;
7493;SDS011;3788;49.902;8.590;2022-08-21T08:53:49;2.53;;;2.33;;
7493;SDS011;3788;49.902;8.590;2022-08-21T08:56:24;2.55;;;2.35;;
7493;SDS011;3788;49.902;8.590;2022-08-21T08:58:55;3.53;;;2.60;;
7493;SDS011;3788;49.902;8.590;2022-08-21T09:01:25;2.80;;;2.60;;
7493;SDS011;3788;49.902;8.590;2022-08-21T09:03:53;4.50;;;2.55;;
7493;SDS011;3788;49.902;8.590;2022-08-21T09:06:25;3.15;;;2.70;;
7493;SDS011;3788;49.902;8.590;2022-08-21T09:09:06;3.92;;;2.40;;
7493;SDS011;3788;49.902;8.590;2022-08-21T09:11:48;3.00;;;2.70;;
7493;SDS011;3788;49.902;8.590;2022-08-21T09:14:24;3.08;;;2.88;;
7493;SDS011;3788;49.902;8.590;2022-08-21T09:17:04;3.30;;;2.72;;
7493;SDS011;3788;49.902;8.590;2022-08-21T09:19:48;5.50;;;3.28;;
7493;SDS011;3788;49.902;8.590;2022-08-21T09:22:36;4.88;;;3.35;;
7493;SDS011;3788;49.902;8.590;2022-08-21T09:25:08;4.10;;;2.60;;
7493;SDS011;3788;49.902;8.590;2022-08-21T09:27:41;3.05;;;2.72;;
7493;SDS011;3788;49.902;8.590;2022-08-21T09:30:08;2.60;;;2.40;;
7493;SDS011;3788;49.902;8.590;2022-08-21T09:32:36;2.42;;;2.22;;
7493;SDS011;3788;49.902;8.590;2022-08-21T09:35:07;3.17;;;2.47;;
7493;SDS011;3788;49.902;8.590;2022-08-21T09:37:44;4.15;;;2.47;;
7493;SDS011;3788;49.902;8.590;2022-08-21T09:40:15;3.15;;;2.40;;
7493;SDS011;3788;49.902;8.590;2022-08-21T09:42:53;3.35;;;2.40;;
7493;SDS011;3788;49.902;8.590;2022-08-21T09:45:21;3.95;;;2.88;;
7493;SDS011;3788;49.902;8.590;2022-08-21T09:47:48;3.90;;;2.60;;
7493;SDS011;3788;49.902;8.590;2022-08-21T09:50:16;3.25;;;2.35;;
7493;SDS011;3788;49.902;8.590;2022-08-21T09:52:46;3.65;;;2.60;;
7493;SDS011;3788;49.902;8.590;2022-08-21T09:55:16;2.83;;;2.47;;
7493;SDS011;3788;49.902;8.590;2022-08-21T09:58:03;4.55;;;2.25;;
7493;SDS011;3788;49.902;8.590;2022-08-21T10:00:33;3.20;;;2.42;;
7493;SDS011;3788;49.902;8.590;2022-08-21T10:03:08;3.58;;;2.63;;
7493;SDS011;3788;49.902;8.590;2022-08-21T10:05:49;2.92;;;2.63;;
7493;SDS011;3788;49.902;8.590;2022-08-21T10:08:18;2.97;;;2.65;;
7493;SDS011;3788;49.902;8.590;2022-08-21T10:10:49;3.72;;;3.00;;
7493;SDS011;3788;49.902;8.590;2022-08-21T10:13:20;4.57;;;2.80;;
7493;SDS011;3788;49.902;8.590;2022-08-21T10:15:54;3.13;;;2.70;;
7493;SDS011;3788;49.902;8.590;2022-08-21T10:18:27;5.20;;;2.92;;
7493;SDS011;3788;49.902;8.590;2022-08-21T10:21:04;4.95;;;3.00;;
7493;SDS011;3788;49.902;8.590;2022-08-21T10:23:39;3.77;;;2.47;;
7493;SDS011;3788;49.902;8.590;2022-08-21T10:26:20;3.00;;;2.50;;
7493;SDS011;3788;49.902;8.590;2022-08-21T10:29:02;4.78;;;2.42;;
7493;SDS011;3788;49.902;8.590;2022-08-21T10:31:42;3.30;;;2.65;;
7493;SDS011;3788;49.902;8.590;2022-08-21T10:34:19;3.03;;;2.50;;
7493;SDS011;3788;49.902;8.590;2022-08-21T10:37:01;3.97;;;2.63;;
7493;SDS011;3788;49.902;8.590;2022-08-21T10:39:39;4.10;;;2.42;;
7493;SDS011;3788;49.902;8.590;2022-08-21T10:42:22;2.80;;;2.43;;
7493;SDS011;3788;49.902;8.590;2022-08-21T10:44:59;2.80;;;2.45;;
7493;SDS011;3788;49.902;8.590;2022-08-21T10:47:37;2.47;;;2.27;;
7493;SDS011;3788;49.902;8.590;2022-08-21T10:50:14;4.23;;;2.90;;
7493;SDS011;3788;49.902;8.590;2022-08-21T10:53:00;3.80;;;2.90;;
7493;SDS011;3788;49.902;8.590;2022-08-21T10:55:35;2.80;;;2.60;;
7493;SDS011;3788;49.902;8.590;2022-08-21T10:58:08;5.63;;;3.10;;
7493;SDS011;3788;49.902;8.590;2022-08-21T11:00:38;3.90;;;3.10;;
7493;SDS011;3788;49.902;8.590;2022-08-21T11:03:11;3.03;;;2.63;;
7493;SDS011;3788;49.902;8.590;2022-08-21T11:05:42;3.30;;;2.30;;
7493;SDS011;3788;49.902;8.590;2022-08-21T11:08:17;2.70;;;2.50;;
7493;SDS011;3788;49.902;8.590;2022-08-21T11:10:48;4.13;;;2.80;;
7493;SDS011;3788;49.902;8.590;2022-08-21T11:13:19;3.27;;;2.70;;
7493;SDS011;3788;49.902;8.590;2022-08-21T11:15:53;4.97;;;3.10;;
7493;SDS011;3788;49.902;8.590;2022-08-21T11:18:27;3.70;;;2.50;;
7493;SDS011;3788;49.902;8.590;2022-08-21T11:21:01;2.50;;;2.30;;
7493;SDS011;3788;49.902;8.590;2022-08-21T11:23:37;4.97;;;3.03;;
7493;SDS011;3788;49.902;8.590;2022-08-21T11:26:07;2.90;;;2.17;;
7493;SDS011;3788;49.902;8.590;2022-08-21T11:28:39;3.57;;;2.20;;
7493;SDS011;3788;49.902;8.590;2022-08-21T11:31:14;4.07;;;2.67;;
7493;SDS011;3788;49.902;8.590;2022-08-21T11:33:57;6.10;;;3.00;;
7493;SDS011;3788;49.902;8.590;2022-08-21T11:36:37;4.20;;;2.63;;
7493;SDS011;3788;49.902;8.590;2022-08-21T11:39:12;5.23;;;2.93;;
7493;SDS011;3788;49.902;8.590;2022-08-21T11:41:46;3.23;;;2.90;;
7493;SDS011;3788;49.902;8.590;2022-08-21T11:44:22;5.10;;;2.90;;
7493;SDS011;3788;49.902;8.590;2022-08-21T11:46:59;5.33;;;2.73;;
7493;SDS011;3788;49.902;8.590;2022-08-21T11:49:34;4.23;;;2.70;;
7493;SDS011;3788;49.902;8.590;2022-08-21T11:52:14;3.10;;;2.80;;
7493;SDS011;3788;49.902;8.590;2022-08-21T11:54:48;3.27;;;2.73;;
7493;SDS011;3788;49.902;8.590;2022-08-21T11:57:19;3.80;;;2.57;;
7493;SDS011;3788;49.902;8.590;2022-08-21T11:59:51;3.20;;;2.57;;
7493;SDS011;3788;49.902;8.590;2022-08-21T12:02:21;3.53;;;2.40;;
7493;SDS011;3788;49.902;8.590;2022-08-21T12:04:51;5.00;;;2.47;;
7493;SDS011;3788;49.902;8.590;2022-08-21T12:07:29;4.13;;;2.50;;
7493;SDS011;3788;49.902;8.590;2022-08-21T12:10:04;2.37;;;2.13;;
7493;SDS011;3788;49.902;8.590;2022-08-21T12:12:34;4.60;;;2.50;;
7493;SDS011;3788;49.902;8.590;2022-08-21T12:15:14;3.83;;;2.60;;
7493;SDS011;3788;49.902;8.590;2022-08-21T12:17:54;3.10;;;2.30;;
7493;SDS011;3788;49.902;8.590;2022-08-21T12:20:34;3.07;;;2.37;;
7493;SDS011;3788;49.902;8.590;2022-08-21T12:23:12;3.60;;;2.47;;
7493;SDS011;3788;49.902;8.590;2022-08-21T12:25:44;4.27;;;2.80;;
7493;SDS011;3788;49.902;8.590;2022-08-21T12:28:15;5.13;;;2.47;;
7493;SDS011;3788;49.902;8.590;2022-08-21T12:30:48;3.87;;;2.33;;
7493;SDS011;3788;49.902;8.590;2022-08-21T12:33:20;3.40;;;2.50;;
7493;SDS011;3788;49.902;8.590;2022-08-21T12:35:50;3.47;;;2.40;;
7493;SDS011;3788;49.902;8.590;2022-08-21T12:38:20;2.90;;;2.30;;
7493;SDS011;3788;49.902;8.590;2022-08-21T12:40:52;2.67;;;2.23;;
7493;SDS011;3788;49.902;8.590;2022-08-21T12:43:21;3.53;;;2.53;;
7493;SDS011;3788;49.902;8.590;2022-08-21T12:45:54;3.63;;;2.07;;
7493;SDS011;3788;49.902;8.590;2022-08-21T12:48:22;3.33;;;2.57;;
7493;SDS011;3788;49.902;8.590;2022-08-21T12:50:53;4.47;;;2.87;;
7493;SDS011;3788;49.902;8.590;2022-08-21T12:53:24;3.53;;;2.27;;
7493;SDS011;3788;49.902;8.590;2022-08-21T12:55:57;3.70;;;2.70;;
7493;SDS011;3788;49.902;8.590;2022-08-21T12:58:27;3.03;;;2.20;;
7493;SDS011;3788;49.902;8.590;2022-08-21T13:00:54;2.67;;;2.17;;
7493;SDS011;3788;49.902;8.590;2022-08-21T13:03:24;4.10;;;2.53;;
7493;SDS011;3788;49.902;8.590;2022-08-21T13:05:51;3.60;;;2.70;;
7493;SDS011;3788;49.902;8.590;2022-08-21T13:08:20;4.10;;;2.60;;
7493;SDS011;3788;49.902;8.590;2022-08-21T13:10:49;2.47;;;2.10;;
7493;SDS011;3788;49.902;8.590;2022-08-21T13:13:26;5.53;;;2.67;;
7493;SDS011;3788;49.902;8.590;2022-08-21T13:15:56;3.90;;;2.33;;
7493;SDS011;3788;49.902;8.590;2022-08-21T13:18:25;4.47;;;2.77;;
7493;SDS011;3788;49.902;8.590;2022-08-21T13:21:02;3.13;;;2.13;;
7493;SDS011;3788;49.902;8.590;2022-08-21T13:23:30;2.70;;;2.10;;
7493;SDS011;3788;49.902;8.590;2022-08-21T13:25:58;3.73;;;2.60;;
7493;SDS011;3788;49.902;8.590;2022-08-21T13:28:31;4.87;;;2.40;;
7493;SDS011;3788;49.902;8.590;2022-08-21T13:30:59;3.37;;;2.37;;
7493;SDS011;3788;49.902;8.590;2022-08-21T13:33:27;3.40;;;2.37;;
7493;SDS011;3788;49.902;8.590;2022-08-21T13:35:57;2.73;;;2.50;;
7493;SDS011;3788;49.902;8.590;2022-08-21T13:38:30;4.13;;;2.23;;
7493;SDS011;3788;49.902;8.590;2022-08-21T13:41:01;2.57;;;2.10;;
7493;SDS011;3788;49.902;8.590;2022-08-21T13:43:33;2.63;;;2.43;;
7493;SDS011;3788;49.902;8.590;2022-08-21T13:46:02;3.17;;;2.20;;
7493;SDS011;3788;49.902;8.590;2022-08-21T13:48:35;3.83;;;2.30;;
7493;SDS011;3788;49.902;8.590;2022-08-21T13:51:02;1.90;;;1.80;;
7493;SDS011;3788;49.902;8.590;2022-08-21T13:53:30;3.73;;;2.10;;
7493;SDS011;3788;49.902;8.590;2022-08-21T13:56:01;3.27;;;2.00;;
7493;SDS011;3788;49.902;8.590;2022-08-21T13:58:30;3.87;;;2.50;;
7493;SDS011;3788;49.902;8.590;2022-08-21T14:00:59;3.47;;;2.50;;
7493;SDS011;3788;49.902;8.590;2022-08-21T14:03:29;4.07;;;2.10;;
7493;SDS011;3788;49.902;8.590;2022-08-21T14:05:59;3.67;;;2.50;;
7493;SDS011;3788;49.902;8.590;2022-08-21T14:08:27;2.20;;;2.00;;
7493;SDS011;3788;49.902;8.590;2022-08-21T14:10:58;3.10;;;1.97;;
7493;SDS011;3788;49.902;8.590;2022-08-21T14:13:36;3.47;;;2.07;;
7493;SDS011;3788;49.902;8.590;2022-08-21T14:16:11;3.70;;;2.20;;
7493;SDS011;3788;49.902;8.590;2022-08-21T14:18:48;4.97;;;2.33;;
7493;SDS011;3788;49.902;8.590;2022-08-21T14:21:30;2.30;;;1.63;;
7493;SDS011;3788;49.902;8.590;2022-08-21T14:23:59;4.00;;;2.20;;
7493;SDS011;3788;49.902;8.590;2022-08-21T14:26:32;3.30;;;1.70;;
7493;SDS011;3788;49.902;8.590;2022-08-21T14:29:01;2.87;;;2.00;;
7493;SDS011;3788;49.902;8.590;2022-08-21T14:31:33;2.43;;;2.20;;
7493;SDS011;3788;49.902;8.590;2022-08-21T14:34:00;3.93;;;2.43;;
7493;SDS011;3788;49.902;8.590;2022-08-21T14:36:27;3.70;;;2.10;;
7493;SDS011;3788;49.902;8.590;2022-08-21T14:38:53;2.30;;;1.97;;
7493;SDS011;3788;49.902;8.590;2022-08-21T14:41:21;2.03;;;1.70;;
7493;SDS011;3788;49.902;8.590;2022-08-21T14:43:51;2.93;;;2.03;;
7493;SDS011;3788;49.902;8.590;2022-08-21T14:46:21;2.90;;;2.17;;
7493;SDS011;3788;49.902;8.590;2022-08-21T14:48:51;3.37;;;2.07;;
7493;SDS011;3788;49.902;8.590;2022-08-21T14:51:17;3.20;;;2.30;;
7493;SDS011;3788;49.902;8.590;2022-08-21T14:53:45;2.37;;;1.93;;
7493;SDS011;3788;49.902;8.590;2022-08-21T14:56:13;2.13;;;1.93;;
7493;SDS011;3788;49.902;8.590;2022-08-21T14:58:41;2.13;;;1.77;;
7493;SDS011;3788;49.902;8.590;2022-08-21T15:01:12;1.83;;;1.73;;
7493;SDS011;3788;49.902;8.590;2022-08-21T15:03:40;1.97;;;1.73;;
7493;SDS011;3788;49.902;8.590;2022-08-21T15:06:07;2.77;;;1.90;;
7493;SDS011;3788;49.902;8.590;2022-08-21T15:08:34;2.90;;;2.00;;
7493;SDS011;3788;49.902;8.590;2022-08-21T15:11:02;2.77;;;2.17;;
7493;SDS011;3788;49.902;8.590;2022-08-21T15:13:30;3.50;;;2.00;;
7493;SDS011;3788;49.902;8.590;2022-08-21T15:15:57;2.73;;;2.13;;
7493;SDS011;3788;49.902;8.590;2022-08-21T15:18:26;2.80;;;1.80;;
7493;SDS011;3788;49.902;8.590;2022-08-21T15:20:54;2.30;;;1.73;;
7493;SDS011;3788;49.902;8.590;2022-08-21T15:23:21;2.57;;;1.70;;
7493;SDS011;3788;49.902;8.590;2022-08-21T15:25:48;2.63;;;1.97;;
7493;SDS011;3788;49.902;8.590;2022-08-21T15:28:16;4.23;;;2.10;;
7493;SDS011;3788;49.902;8.590;2022-08-21T15:30:44;2.50;;;2.00;;